createdAt,value
2023-03-12T00:02:00.605Z,100179.16
2023-03-12T00:04:27.902Z,100179.13
2023-03-12T00:06:54.709Z,100176.56
2023-03-12T00:09:21.366Z,100189.56
2023-03-12T00:11:48.065Z,100187.97
2023-03-12T00:14:14.936Z,100191.44
2023-03-12T00:16:43.460Z,100196.59
2023-03-12T00:19:11.667Z,100188.91
2023-03-12T00:21:38.934Z,100197.56
2023-03-12T00:24:05.780Z,100193.25
2023-03-12T00:26:32.426Z,100191.72
2023-03-12T00:28:59.103Z,100186.44
2023-03-12T00:31:29.628Z,100198.34
2023-03-12T00:33:56.705Z,100194.88
2023-03-12T00:36:28.275Z,100194.09
2023-03-12T00:38:55.752Z,100198.44
2023-03-12T00:41:23.112Z,100195.78
2023-03-12T00:43:50.754Z,100193.22
2023-03-12T00:46:17.869Z,100186.19
2023-03-12T00:48:45.121Z,100194.75
2023-03-12T00:51:11.881Z,100205.28
2023-03-12T00:53:38.484Z,100202.53
2023-03-12T00:56:05.980Z,100204.31
2023-03-12T00:58:32.623Z,100212.84
2023-03-12T01:00:59.365Z,100213.59
2023-03-12T01:03:26.227Z,100216.13
2023-03-12T01:05:55.680Z,100218.75
2023-03-12T01:08:22.907Z,100223.19
2023-03-12T01:10:49.984Z,100231.88
2023-03-12T01:13:16.818Z,100230.22
2023-03-12T01:15:43.519Z,100239.66
2023-03-12T01:18:10.160Z,100240.66
2023-03-12T01:20:36.779Z,100239.00
2023-03-12T01:23:03.665Z,100241.53
2023-03-12T01:25:30.311Z,100241.50
2023-03-12T01:27:56.963Z,100237.06
2023-03-12T01:30:23.786Z,100239.69
2023-03-12T01:32:52.031Z,100240.75
2023-03-12T01:35:18.862Z,100234.44
2023-03-12T01:37:46.737Z,100238.75
2023-03-12T01:40:18.656Z,100245.94
2023-03-12T01:42:52.818Z,100259.03
2023-03-12T01:46:11.059Z,100252.97
2023-03-12T01:48:44.678Z,100251.88
2023-03-12T01:51:14.113Z,100251.16
2023-03-12T01:53:45.425Z,100257.91
2023-03-12T01:56:13.172Z,100252.75
2023-03-12T01:58:43.455Z,100264.97
2023-03-12T02:01:10.304Z,100258.66
2023-03-12T02:03:37.194Z,100259.44
2023-03-12T02:06:07.379Z,100257.78
2023-03-12T02:08:38.591Z,100261.19
2023-03-12T02:11:05.421Z,100268.03
2023-03-12T02:13:32.087Z,100264.63
2023-03-12T02:15:58.813Z,100269.66
2023-03-12T02:18:25.583Z,100267.75
2023-03-12T02:21:08.501Z,100276.41
2023-03-12T02:24:02.203Z,100272.84
2023-03-12T02:26:30.414Z,100271.22
2023-03-12T02:28:59.681Z,100268.50
2023-03-12T02:31:28.880Z,100267.59
2023-03-12T02:33:56.034Z,100265.78
2023-03-12T02:36:22.845Z,100268.25
2023-03-12T02:38:51.668Z,100271.00
2023-03-12T02:41:21.449Z,100278.63
2023-03-12T02:43:59.804Z,100276.91
2023-03-12T02:46:26.887Z,100282.00
2023-03-12T02:48:53.720Z,100283.66
2023-03-12T02:51:20.424Z,100289.69
2023-03-12T02:53:47.250Z,100285.34
2023-03-12T02:56:13.894Z,100287.69
2023-03-12T02:58:41.906Z,100291.25
2023-03-12T03:01:08.542Z,100297.28
2023-03-12T03:03:35.140Z,100298.69
2023-03-12T03:06:01.787Z,100304.78
2023-03-12T03:08:29.560Z,100305.50
2023-03-12T03:10:56.227Z,100311.53
2023-03-12T03:13:22.895Z,100314.19
2023-03-12T03:15:49.585Z,100313.09
2023-03-12T03:18:16.246Z,100311.38
2023-03-12T03:20:44.609Z,100315.66
2023-03-12T03:23:11.498Z,100311.34
2023-03-12T03:25:38.299Z,100313.19
2023-03-12T03:28:05.018Z,100320.84
2023-03-12T03:30:32.455Z,100334.53
2023-03-12T03:32:59.094Z,100326.22
2023-03-12T03:35:25.740Z,100327.06
2023-03-12T03:37:52.451Z,100336.69
2023-03-12T03:40:19.292Z,100334.63
2023-03-12T03:42:45.939Z,100334.47
2023-03-12T03:45:12.590Z,100339.16
2023-03-12T03:47:39.317Z,100350.34
2023-03-12T03:50:06.819Z,100337.94
2023-03-12T03:52:33.749Z,100351.63
2023-03-12T03:55:00.427Z,100354.16
2023-03-12T03:57:27.851Z,100349.91
2023-03-12T03:59:54.691Z,100360.09
2023-03-12T04:02:21.590Z,100360.06
2023-03-12T04:04:48.241Z,100368.53
2023-03-12T04:07:14.962Z,100371.94
2023-03-12T04:09:41.633Z,100369.59
2023-03-12T04:12:09.264Z,100359.78
2023-03-12T04:14:39.638Z,100364.94
2023-03-12T04:17:06.430Z,100372.66
2023-03-12T04:19:33.025Z,100364.03
2023-03-12T04:22:00.068Z,100358.03
2023-03-12T04:24:26.711Z,100369.06
2023-03-12T04:26:53.341Z,100360.47
2023-03-12T04:29:20.061Z,100370.66
2023-03-12T04:31:46.718Z,100377.44
2023-03-12T04:34:14.625Z,100374.00
2023-03-12T04:36:41.646Z,100376.50
2023-03-12T04:39:08.422Z,100372.84
2023-03-12T04:41:35.918Z,100379.84
2023-03-12T04:44:03.766Z,100383.19
2023-03-12T04:46:30.563Z,100382.28
2023-03-12T04:48:58.168Z,100388.38
2023-03-12T04:51:25.148Z,100396.16
2023-03-12T04:53:51.956Z,100395.28
2023-03-12T04:56:18.633Z,100398.72
2023-03-12T04:58:45.737Z,100398.59
2023-03-12T05:01:21.307Z,100395.81
2023-03-12T05:03:47.927Z,100399.97
2023-03-12T05:06:14.530Z,100396.47
2023-03-12T05:08:41.320Z,100397.38
2023-03-12T05:11:07.947Z,100400.06
2023-03-12T05:13:34.611Z,100399.13
2023-03-12T05:16:01.272Z,100401.81
2023-03-12T05:18:28.014Z,100402.50
2023-03-12T05:21:02.618Z,100402.66
2023-03-12T05:23:30.156Z,100403.50
2023-03-12T05:25:56.832Z,100402.66
2023-03-12T05:28:27.879Z,100411.91
2023-03-12T05:30:56.107Z,100419.66
2023-03-12T05:33:22.729Z,100410.88
2023-03-12T05:35:49.681Z,100415.09
2023-03-12T05:38:16.590Z,100414.16
2023-03-12T05:40:43.277Z,100409.09
2023-03-12T05:43:09.892Z,100416.00
2023-03-12T05:45:36.732Z,100419.41
2023-03-12T05:48:03.591Z,100415.22
2023-03-12T05:50:30.259Z,100422.00
2023-03-12T05:52:56.887Z,100423.75
2023-03-12T05:55:23.532Z,100416.88
2023-03-12T05:57:50.311Z,100432.38
2023-03-12T06:00:17.483Z,100429.75
2023-03-12T06:02:44.177Z,100428.13
2023-03-12T06:05:11.768Z,100432.38
2023-03-12T06:07:38.406Z,100431.72
2023-03-12T06:10:06.038Z,100429.97
2023-03-12T06:12:32.682Z,100432.63
2023-03-12T06:14:59.302Z,100429.16
2023-03-12T06:17:28.704Z,100438.06
2023-03-12T06:19:55.361Z,100433.78
2023-03-12T06:22:22.116Z,100438.19
2023-03-12T06:24:48.753Z,100440.69
2023-03-12T06:27:16.402Z,100428.88
2023-03-12T06:29:43.066Z,100431.31
2023-03-12T06:32:09.686Z,100441.22
2023-03-12T06:34:36.296Z,100442.34
2023-03-12T06:37:02.948Z,100445.00
2023-03-12T06:39:30.007Z,100440.56
2023-03-12T06:41:56.800Z,100444.94
2023-03-12T06:44:23.644Z,100442.72
2023-03-12T06:46:50.709Z,100455.66
2023-03-12T06:49:17.358Z,100452.91
2023-03-12T06:51:44.004Z,100452.22
2023-03-12T06:54:10.638Z,100456.91
2023-03-12T06:56:38.097Z,100455.09
2023-03-12T06:59:04.873Z,100444.13
2023-03-12T07:01:31.603Z,100447.47
2023-03-12T07:03:58.353Z,100451.91
2023-03-12T07:06:25.238Z,100446.16
2023-03-12T07:08:52.486Z,100457.38
2023-03-12T07:11:19.128Z,100450.63
2023-03-12T07:13:45.913Z,100453.63
2023-03-12T07:16:12.632Z,100446.84
2023-03-12T07:18:39.346Z,100442.75
2023-03-12T07:21:06.255Z,100444.53
2023-03-12T07:23:32.892Z,100450.94
2023-03-12T07:25:59.554Z,100459.88
2023-03-12T07:28:26.189Z,100451.69
2023-03-12T07:30:52.858Z,100459.84
2023-03-12T07:33:21.162Z,100463.59
2023-03-12T07:35:51.013Z,100459.31
2023-03-12T07:38:18.809Z,100459.94
2023-03-12T07:40:45.601Z,100460.88
2023-03-12T07:43:12.741Z,100463.69
2023-03-12T07:45:39.842Z,100463.94
2023-03-12T07:48:07.222Z,100464.09
2023-03-12T07:50:34.945Z,100463.31
2023-03-12T07:53:01.867Z,100466.94
2023-03-12T07:55:28.599Z,100464.28
2023-03-12T07:57:58.398Z,100470.41
2023-03-12T08:00:26.575Z,100473.00
2023-03-12T08:02:53.711Z,100473.94
2023-03-12T08:05:24.715Z,100473.22
2023-03-12T08:07:52.448Z,100475.06
2023-03-12T08:10:19.808Z,100471.59
2023-03-12T08:12:46.683Z,100474.22
2023-03-12T08:15:13.523Z,100479.53
2023-03-12T08:17:40.272Z,100475.38
2023-03-12T08:20:10.366Z,100476.22
2023-03-12T08:22:38.102Z,100479.75
2023-03-12T08:25:05.668Z,100478.16
2023-03-12T08:27:33.749Z,100482.53
2023-03-12T08:30:00.413Z,100485.09
2023-03-12T08:32:27.187Z,100483.38
2023-03-12T08:34:54.025Z,100480.75
2023-03-12T08:37:20.602Z,100471.34
2023-03-12T08:39:47.201Z,100483.50
2023-03-12T08:42:13.814Z,100482.78
2023-03-12T08:44:40.411Z,100494.88
2023-03-12T08:47:07.056Z,100479.31
2023-03-12T08:49:33.839Z,100482.88
2023-03-12T08:52:00.642Z,100485.56
2023-03-12T08:54:27.263Z,100475.28
2023-03-12T08:56:53.967Z,100483.28
2023-03-12T08:59:22.335Z,100482.56
2023-03-12T09:01:49.077Z,100478.38
2023-03-12T09:04:16.217Z,100476.75
2023-03-12T09:06:43.355Z,100475.06
2023-03-12T09:09:10.133Z,100469.00
2023-03-12T09:11:39.615Z,100475.16
2023-03-12T09:16:52.858Z,100481.28
2023-03-12T09:19:20.586Z,100477.84
2023-03-12T09:21:47.203Z,100487.41
2023-03-12T09:24:13.817Z,100478.66
2023-03-12T09:26:40.414Z,100487.41
2023-03-12T09:29:07.018Z,100479.59
2023-03-12T09:31:34.673Z,100476.19
2023-03-12T09:34:01.300Z,100477.97
2023-03-12T09:36:28.274Z,100476.25
2023-03-12T09:38:55.218Z,100479.75
2023-03-12T09:41:25.373Z,100479.75
2023-03-12T09:43:57.429Z,100477.19
2023-03-12T09:46:33.344Z,100478.06
2023-03-12T09:49:02.487Z,100476.31
2023-03-12T09:51:34.754Z,100485.91
2023-03-12T09:54:04.381Z,100471.06
2023-03-12T09:56:31.475Z,100468.47
2023-03-12T09:58:58.085Z,100467.59
2023-03-12T10:01:46.580Z,100465.84
2023-03-12T10:04:25.063Z,100463.22
2023-03-12T10:07:23.826Z,100463.22
2023-03-12T10:10:27.997Z,100462.34
2023-03-12T10:13:01.683Z,100464.97
2023-03-12T10:15:55.354Z,100455.34
2023-03-12T10:18:48.402Z,100459.75
2023-03-12T10:21:35.802Z,100452.75
2023-03-12T10:24:11.819Z,100458.84
2023-03-12T10:26:41.106Z,100464.09
2023-03-12T10:29:17.884Z,100470.19
2023-03-12T10:31:55.363Z,100469.31
2023-03-12T10:34:37.692Z,100455.34
2023-03-12T10:37:42.453Z,100453.53
2023-03-12T10:40:34.220Z,100450.00
2023-03-12T10:43:02.279Z,100441.22
2023-03-12T10:46:02.390Z,100442.09
2023-03-12T10:48:29.019Z,100438.66
2023-03-12T10:51:01.852Z,100441.31
2023-03-12T10:53:39.228Z,100442.25
2023-03-12T10:56:17.286Z,100446.63
2023-03-12T10:58:49.496Z,100438.75
2023-03-12T11:01:29.392Z,100439.66
2023-03-12T11:04:22.166Z,100443.16
2023-03-12T11:07:21.532Z,100427.41
2023-03-12T11:10:08.461Z,100436.13
2023-03-12T11:12:37.134Z,100436.97
2023-03-12T11:15:29.152Z,100409.72
2023-03-12T11:18:24.077Z,100400.00
2023-03-12T11:20:53.035Z,100410.53
2023-03-12T11:23:30.568Z,100416.78
2023-03-12T11:26:00.839Z,100415.91
2023-03-12T11:28:43.234Z,100409.72
2023-03-12T11:31:19.166Z,100406.22
2023-03-12T11:33:45.869Z,100403.63
2023-03-12T11:36:30.274Z,100383.50
2023-03-12T11:39:13.595Z,100382.66
2023-03-12T11:41:56.177Z,100382.59
2023-03-12T11:44:28.987Z,100393.09
2023-03-12T11:47:24.399Z,100390.44
2023-03-12T11:50:12.336Z,100386.13
2023-03-12T11:52:52.175Z,100379.94
2023-03-12T11:55:46.836Z,100368.53
2023-03-12T11:58:27.885Z,100362.44
2023-03-12T12:01:10.147Z,100354.59
2023-03-12T12:03:45.645Z,100357.22
2023-03-12T12:06:21.348Z,100350.28
2023-03-12T12:08:51.416Z,100347.63
2023-03-12T12:11:48.200Z,100351.97
2023-03-12T12:14:55.248Z,100333.59
2023-03-12T12:17:27.720Z,100330.06
2023-03-12T12:20:10.083Z,100315.25
2023-03-12T12:23:12.745Z,100295.97
2023-03-12T12:25:48.709Z,100287.22
2023-03-12T12:28:49.287Z,100279.31
2023-03-12T12:31:37.526Z,100276.59
2023-03-12T12:34:29.014Z,100273.91
2023-03-12T12:37:22.490Z,100280.97
2023-03-12T12:40:05.196Z,100296.69
2023-03-12T12:42:33.672Z,100286.25
2023-03-12T12:45:02.389Z,100269.66
2023-03-12T12:48:15.752Z,100263.63
2023-03-12T12:50:42.718Z,100257.50
2023-03-12T12:53:25.603Z,100254.78
2023-03-12T12:56:01.546Z,100259.88
2023-03-12T12:58:44.714Z,100250.88
2023-03-12T13:01:11.837Z,100239.53
2023-03-12T13:03:38.734Z,100250.94
2023-03-12T13:06:06.837Z,100245.09
2023-03-12T13:08:43.120Z,100252.03
2023-03-12T13:11:20.032Z,100248.59
2023-03-12T13:14:02.687Z,100244.31
2023-03-12T13:16:42.589Z,100253.84
2023-03-12T13:19:15.898Z,100252.06
2023-03-12T13:21:47.411Z,100248.59
2023-03-12T13:24:31.334Z,100241.59
2023-03-12T13:27:23.702Z,100239.91
2023-03-12T13:29:56.860Z,100245.13
2023-03-12T13:32:35.776Z,100233.81
2023-03-12T13:35:11.988Z,100235.56
2023-03-12T13:37:52.155Z,100226.97
2023-03-12T13:40:31.330Z,100233.97
2023-03-12T13:43:17.180Z,100226.09
2023-03-12T13:45:55.841Z,100197.28
2023-03-12T13:48:22.896Z,100189.44
2023-03-12T13:50:52.909Z,100202.56
2023-03-12T13:53:38.678Z,100213.13
2023-03-12T13:56:15.244Z,100204.38
2023-03-12T13:58:55.173Z,100213.28
2023-03-12T14:01:24.694Z,100214.16
2023-03-12T14:03:58.568Z,100212.41
2023-03-12T14:06:28.805Z,100210.66
2023-03-12T14:09:10.795Z,100212.47
2023-03-12T14:12:02.524Z,100202.88
2023-03-12T14:15:06.522Z,100196.69
2023-03-12T14:17:34.751Z,100193.25
2023-03-12T14:20:16.021Z,100197.66
2023-03-12T14:22:45.139Z,100190.69
2023-03-12T14:25:22.476Z,100192.47
2023-03-12T14:27:49.268Z,100193.41
2023-03-12T14:30:21.568Z,100182.81
2023-03-12T14:32:50.638Z,100191.66
2023-03-12T14:35:31.213Z,100181.16
2023-03-12T14:38:06.123Z,100186.41
2023-03-12T14:40:40.112Z,100186.53
2023-03-12T14:43:27.432Z,100184.00
2023-03-12T14:45:58.926Z,100176.97
2023-03-12T14:48:34.668Z,100183.97
2023-03-12T14:51:03.548Z,100185.81
2023-03-12T14:53:32.897Z,100172.69
2023-03-12T14:56:24.650Z,100165.78
2023-03-12T14:58:52.325Z,100157.03
2023-03-12T15:01:22.324Z,100145.72
2023-03-12T15:03:54.432Z,100138.75
2023-03-12T15:06:36.633Z,100130.06
2023-03-12T15:09:05.097Z,100139.66
2023-03-12T15:11:33.821Z,100140.50
2023-03-12T15:14:14.406Z,100127.38
2023-03-12T15:16:42.438Z,100137.00
2023-03-12T15:19:18.770Z,100138.81
2023-03-12T15:21:46.193Z,100147.53
2023-03-12T15:24:13.941Z,100145.72
2023-03-12T15:26:41.426Z,100144.00
2023-03-12T15:29:13.960Z,100137.03
2023-03-12T15:31:45.843Z,100137.06
2023-03-12T15:34:27.744Z,100132.78
2023-03-12T15:36:54.935Z,100134.56
2023-03-12T15:39:26.632Z,100138.03
2023-03-12T15:41:54.378Z,100137.19
2023-03-12T15:44:23.574Z,100131.13
2023-03-12T15:47:10.830Z,100126.81
2023-03-12T15:49:38.789Z,100122.47
2023-03-12T15:52:26.609Z,100116.38
2023-03-12T15:55:01.623Z,100117.25
2023-03-12T15:57:28.815Z,100121.63
2023-03-12T16:00:13.687Z,100110.31
2023-03-12T16:02:51.588Z,100100.75
2023-03-12T16:05:20.120Z,100099.88
2023-03-12T16:07:46.807Z,100112.09
2023-03-12T16:10:15.329Z,100104.25
2023-03-12T16:12:42.615Z,100096.44
2023-03-12T16:18:39.014Z,100085.97
2023-03-12T16:21:05.809Z,100072.03
2023-03-12T16:23:32.514Z,100085.97
2023-03-12T16:25:59.787Z,100079.84
2023-03-12T16:28:26.515Z,100075.53
2023-03-12T16:30:53.411Z,100081.59
2023-03-12T16:33:22.184Z,100076.41
2023-03-12T16:35:48.856Z,100072.06
2023-03-12T16:38:15.554Z,100052.91
2023-03-12T16:40:49.582Z,100058.13
2023-03-12T16:43:22.102Z,100064.25
2023-03-12T16:45:50.271Z,100070.31
2023-03-12T16:48:24.104Z,100069.44
2023-03-12T16:50:52.854Z,100070.31
2023-03-12T16:53:19.934Z,100071.19
2023-03-12T16:55:50.287Z,100072.94
2023-03-12T16:58:18.782Z,100077.25
2023-03-12T17:00:45.456Z,100080.75
2023-03-12T17:03:18.835Z,100084.25
2023-03-12T17:05:45.764Z,100086.81
2023-03-12T17:08:14.160Z,100076.41
2023-03-12T17:10:40.908Z,100076.38
2023-03-12T17:13:07.503Z,100076.41
2023-03-12T17:15:34.242Z,100068.56
2023-03-12T17:18:03.546Z,100065.06
2023-03-12T17:20:36.097Z,100055.50
2023-03-12T17:23:03.717Z,100057.25
2023-03-12T17:25:32.897Z,100056.34
2023-03-12T17:27:59.767Z,100052.00
2023-03-12T17:30:27.897Z,100058.06
2023-03-12T17:33:01.175Z,100053.69
2023-03-12T17:35:27.873Z,100047.63
2023-03-12T17:37:54.516Z,100047.59
2023-03-12T17:40:21.163Z,100048.44
2023-03-12T17:42:47.819Z,100051.06
2023-03-12T17:45:14.660Z,100056.28
2023-03-12T17:47:41.500Z,100052.78
2023-03-12T17:50:08.657Z,100051.06
2023-03-12T17:52:35.455Z,100045.78
2023-03-12T17:55:03.389Z,100038.88
2023-03-12T17:57:30.457Z,100035.34
2023-03-12T17:59:57.221Z,100031.03
2023-03-12T18:02:24.725Z,100035.34
2023-03-12T18:04:51.850Z,100028.41
2023-03-12T18:07:18.683Z,100022.34
2023-03-12T18:09:45.369Z,100022.38
2023-03-12T18:12:12.501Z,100019.72
2023-03-12T18:14:39.249Z,100012.78
2023-03-12T18:17:05.954Z,100011.03
2023-03-12T18:19:35.122Z,100008.44
2023-03-12T18:22:01.993Z,99991.03
2023-03-12T18:24:28.689Z,99991.88
2023-03-12T18:26:55.324Z,100004.94
2023-03-12T18:29:21.925Z,99994.50
2023-03-12T18:31:48.870Z,99996.22
2023-03-12T18:34:16.298Z,99996.22
2023-03-12T20:44:50.480Z,99894.63
2023-03-12T20:47:25.087Z,99891.16
2023-03-12T20:49:51.765Z,99890.31
2023-03-12T20:52:18.462Z,99892.03
2023-03-12T20:54:45.069Z,99875.53
2023-03-12T20:57:11.717Z,99879.03
2023-03-12T20:59:38.281Z,99892.91
2023-03-12T21:02:04.992Z,99886.81
2023-03-12T21:04:31.569Z,99886.84
2023-03-12T21:06:58.157Z,99886.00
2023-03-12T21:09:24.729Z,99889.47
2023-03-12T21:11:51.328Z,99888.56
2023-03-12T21:14:17.965Z,99900.72
2023-03-12T21:16:44.601Z,99897.28
2023-03-12T21:19:11.210Z,99894.66
2023-03-12T21:21:38.058Z,99893.81
2023-03-12T21:24:04.890Z,99899.91
2023-03-12T21:26:31.533Z,99891.19
2023-03-12T21:28:58.145Z,99888.59
2023-03-12T21:31:26.722Z,99881.63
2023-03-12T21:33:57.931Z,99882.50
2023-03-12T21:36:25.377Z,99873.81
2023-03-12T21:38:52.205Z,99884.22
2023-03-12T21:41:19.283Z,99894.66
2023-03-12T21:43:46.907Z,99895.53
2023-03-12T21:46:16.408Z,99884.22
2023-03-12T21:48:44.455Z,99870.31
2023-03-12T21:51:12.195Z,99885.91
2023-03-12T21:53:38.919Z,99892.88
2023-03-12T21:56:07.350Z,99896.38
2023-03-12T21:58:34.447Z,99883.31
2023-03-12T22:01:12.913Z,99890.25
2023-03-12T22:03:40.602Z,99879.81
2023-03-12T22:06:07.566Z,99889.38
2023-03-12T22:08:34.776Z,99885.03
2023-03-12T22:11:02.124Z,99877.19
2023-03-12T22:13:29.309Z,99872.78
2023-03-12T22:16:00.952Z,99877.13
2023-03-12T22:18:28.303Z,99876.22
2023-03-12T22:20:56.827Z,99871.03
2023-03-12T22:23:24.128Z,99871.03
2023-03-12T22:25:51.233Z,99862.31
2023-03-12T22:28:18.179Z,99857.97
2023-03-12T22:30:44.859Z,99863.19
2023-03-12T22:33:11.801Z,99845.78
2023-03-12T22:35:46.308Z,99854.47
2023-03-12T22:38:12.955Z,99852.72
2023-03-12T22:40:39.697Z,99857.03
2023-03-12T22:43:06.640Z,99852.72
2023-03-12T22:45:33.330Z,99856.16
2023-03-12T22:48:00.348Z,99839.66
2023-03-12T22:50:26.953Z,99847.44
2023-03-12T22:52:53.701Z,99834.41
2023-03-12T22:55:20.280Z,99830.94
2023-03-12T22:57:46.891Z,99821.31
2023-03-12T23:00:16.302Z,99823.94
2023-03-12T23:02:42.994Z,99814.34
2023-03-12T23:05:10.186Z,99827.44
2023-03-12T23:07:37.130Z,99836.09
2023-03-12T23:10:04.498Z,99833.38
2023-03-12T23:12:31.209Z,99826.38
2023-03-12T23:14:57.787Z,99842.88
2023-03-12T23:17:24.416Z,99834.13
2023-03-12T23:19:50.987Z,99826.31
2023-03-12T23:22:17.573Z,99819.31
2023-03-12T23:24:44.227Z,99815.75
2023-03-12T23:27:10.813Z,99822.69
2023-03-12T23:29:37.497Z,99822.72
2023-03-12T23:32:04.730Z,99824.41
2023-03-12T23:34:33.471Z,99827.03
2023-03-12T23:37:00.196Z,99824.44
2023-03-12T23:39:26.822Z,99832.28
2023-03-12T23:41:53.403Z,99820.00
2023-03-12T23:44:20.019Z,99826.09
2023-03-12T23:46:46.854Z,99827.78
2023-03-12T23:49:13.561Z,99827.78
2023-03-12T23:51:42.970Z,99821.69
2023-03-12T23:54:09.554Z,99822.53
2023-03-12T23:56:38.247Z,99826.03
2023-03-12T23:59:06.281Z,99826.91
